createdAt,value
2022-10-17T00:05:38.690Z,19.56
2022-10-17T00:11:23.039Z,19.57
2022-10-17T00:17:06.444Z,19.56
2022-10-17T00:22:49.695Z,19.55
2022-10-17T00:28:32.915Z,19.57
2022-10-17T00:34:16.519Z,19.58
2022-10-17T00:39:59.882Z,19.57
2022-10-17T00:45:43.215Z,19.6
2022-10-17T00:51:28.671Z,19.58
2022-10-17T00:57:12.192Z,19.65
2022-10-17T01:02:55.623Z,19.66
2022-10-17T01:08:38.927Z,19.6
2022-10-17T01:14:28.133Z,19.6
2022-10-17T01:20:23.036Z,19.6
2022-10-17T01:26:12.015Z,19.62
2022-10-17T01:31:59.846Z,19.66
2022-10-17T01:37:46.817Z,19.63
2022-10-17T01:43:34.209Z,19.61
2022-10-17T01:49:20.397Z,19.59
2022-10-17T01:55:08.717Z,19.6
2022-10-17T02:00:53.170Z,19.62
2022-10-17T02:06:38.421Z,19.6
2022-10-17T02:12:41.500Z,19.61
2022-10-17T02:18:30.576Z,19.68
2022-10-17T02:24:18.459Z,19.75
2022-10-17T02:30:06.441Z,19.71
2022-10-17T02:35:51.818Z,19.71
2022-10-17T02:41:36.435Z,19.68
2022-10-17T02:47:22.905Z,19.7
2022-10-17T02:53:08.859Z,19.71
2022-10-17T02:58:55.193Z,19.7
2022-10-17T03:04:42.277Z,19.69
2022-10-17T03:10:25.380Z,19.71
2022-10-17T03:16:08.711Z,19.77
2022-10-17T03:21:51.862Z,19.75
2022-10-17T03:27:35.050Z,19.71
2022-10-17T03:33:18.621Z,19.67
2022-10-17T03:39:01.982Z,19.64
2022-10-17T03:44:45.255Z,19.64
2022-10-17T03:50:28.720Z,19.63
2022-10-17T03:56:15.374Z,19.63
2022-10-17T04:01:58.710Z,19.64
2022-10-17T04:07:42.139Z,19.63
2022-10-17T04:13:25.423Z,19.62
2022-10-17T04:19:11.615Z,19.61
2022-10-17T04:24:55.860Z,19.64
2022-10-17T04:30:41.179Z,19.63
2022-10-17T04:36:34.054Z,19.63
2022-10-17T04:42:18.278Z,19.61
2022-10-17T04:48:01.411Z,19.62
2022-10-17T04:53:45.066Z,19.62
2022-10-17T04:59:28.326Z,19.61
2022-10-17T05:05:11.983Z,19.6
2022-10-17T05:10:56.262Z,19.61
2022-10-17T05:16:40.327Z,19.61
2022-10-17T05:22:23.535Z,19.63
2022-10-17T05:28:06.734Z,19.71
2022-10-17T05:33:49.980Z,19.67
2022-10-17T05:39:33.198Z,19.63
2022-10-17T05:45:16.475Z,19.61
2022-10-17T05:51:02.202Z,19.6
2022-10-17T05:56:45.478Z,19.63
2022-10-17T06:02:29.036Z,19.66
2022-10-17T06:08:14.811Z,19.71
2022-10-17T06:13:58.047Z,19.75
2022-10-17T06:19:41.266Z,19.75
2022-10-17T06:25:24.555Z,19.78
2022-10-17T06:31:09.107Z,19.8
2022-10-17T06:36:52.788Z,19.87
2022-10-17T06:42:36.038Z,19.91
2022-10-17T06:48:19.405Z,19.98
2022-10-17T06:54:02.355Z,20.03
2022-10-17T06:59:45.525Z,20.03
2022-10-17T07:05:28.651Z,20.06
2022-10-17T07:11:15.147Z,20.07
2022-10-17T07:16:58.458Z,20.2
2022-10-17T07:22:41.675Z,20.27
2022-10-17T07:28:24.932Z,20.41
2022-10-17T07:34:08.327Z,20.45
2022-10-17T07:39:51.505Z,20.48
2022-10-17T07:45:34.823Z,20.41
2022-10-17T07:51:18.311Z,20.5
2022-10-17T07:57:02.679Z,20.51
2022-10-17T08:02:45.968Z,20.53
2022-10-17T08:08:29.782Z,20.52
2022-10-17T08:14:13.862Z,20.51
2022-10-17T08:19:57.141Z,20.52
2022-10-17T08:25:41.350Z,20.64
2022-10-17T08:31:24.413Z,20.72
2022-10-17T08:37:07.778Z,20.89
2022-10-17T08:43:13.346Z,20.96
2022-10-17T08:48:58.927Z,21.19
2022-10-17T08:54:43.661Z,21.04
2022-10-17T09:00:28.734Z,21.01
2022-10-17T09:06:17.553Z,20.92
2022-10-17T09:12:05.055Z,20.95
2022-10-17T09:17:51.627Z,21.02
2022-10-17T09:23:41.740Z,21
2022-10-17T09:29:29.676Z,21.12
2022-10-17T09:35:27.083Z,21.19
2022-10-17T09:41:32.344Z,21.22
2022-10-17T09:47:26.234Z,21.31
2022-10-17T09:53:12.171Z,21.44
2022-10-17T09:58:56.525Z,21.51
2022-10-17T10:05:03.194Z,21.69
2022-10-17T10:10:46.206Z,21.82
2022-10-17T10:16:38.509Z,21.88
2022-10-17T10:22:22.520Z,21.82
2022-10-17T10:28:09.347Z,21.74
2022-10-17T10:33:55.635Z,21.71
2022-10-17T10:39:42.801Z,21.69
2022-10-17T10:45:46.752Z,21.66
2022-10-17T10:51:32.425Z,21.71
2022-10-17T10:57:21.373Z,21.77
2022-10-17T11:03:12.574Z,21.84
2022-10-17T11:09:01.280Z,21.84
2022-10-17T11:14:48.516Z,21.92
2022-10-17T11:20:36.403Z,22.07
2022-10-17T11:26:21.471Z,22.15
2022-10-17T11:32:09.247Z,22.19
2022-10-17T11:37:58.084Z,22.1
2022-10-17T11:43:45.144Z,22
2022-10-17T11:49:32.912Z,21.96
2022-10-17T11:55:25.866Z,21.95
2022-10-17T12:01:13.851Z,21.95
2022-10-17T12:07:04.936Z,21.99
2022-10-17T12:12:48.388Z,22.09
2022-10-17T12:18:31.743Z,22.13
2022-10-17T12:24:26.510Z,22.07
2022-10-17T12:30:15.091Z,22.15
2022-10-17T12:36:09.327Z,22.25
2022-10-17T12:41:56.350Z,22.25
2022-10-17T12:47:40.483Z,22.18
2022-10-17T12:53:26.898Z,22.23
2022-10-17T12:59:14.037Z,22.18
2022-10-17T13:05:02.274Z,22.27
2022-10-17T13:10:48.994Z,22.33
2022-10-17T13:16:36.705Z,22.42
2022-10-17T13:22:21.046Z,22.38
2022-10-17T13:28:11.643Z,22.33
2022-10-17T13:33:55.408Z,22.35
2022-10-17T13:40:00.201Z,22.33
2022-10-17T13:45:45.642Z,22.28
2022-10-17T13:51:29.207Z,22.19
2022-10-17T13:57:21.246Z,22.19
2022-10-17T14:03:05.535Z,22.16
2022-10-17T14:08:57.555Z,22.22
2022-10-17T14:15:05.493Z,22.25
2022-10-17T14:26:54.557Z,22.24
2022-10-17T14:32:37.790Z,22.19
2022-10-17T14:38:21.481Z,22.14
2022-10-17T14:44:07.150Z,22.21
2022-10-17T14:49:51.356Z,22.18
2022-10-17T14:55:35.374Z,22.12
2022-10-17T15:01:19.632Z,22.1
2022-10-17T15:07:02.846Z,22.03
2022-10-17T15:12:47.951Z,21.96
2022-10-17T15:18:50.558Z,21.95
2022-10-17T15:24:33.927Z,21.88
2022-10-17T15:30:21.469Z,21.81
2022-10-17T15:36:05.362Z,21.78
2022-10-17T15:41:49.039Z,21.73
2022-10-17T15:47:32.876Z,21.67
2022-10-17T15:53:17.871Z,21.65
2022-10-17T15:59:01.783Z,21.58
2022-10-17T16:04:46.333Z,21.51
2022-10-17T16:10:29.571Z,21.44
2022-10-17T16:16:13.080Z,21.37
2022-10-17T16:21:57.644Z,21.31
2022-10-17T16:27:47.190Z,21.34
2022-10-17T16:33:30.504Z,21.25
2022-10-17T16:39:13.828Z,21.18
2022-10-17T16:44:58.885Z,21.11
2022-10-17T16:50:43.891Z,21.05
2022-10-17T16:56:27.750Z,20.99
2022-10-17T17:02:11.744Z,20.94
2022-10-17T17:08:02.842Z,20.92
2022-10-17T17:13:54.722Z,20.88
2022-10-17T17:19:40.043Z,20.88
2022-10-17T17:25:23.149Z,20.84
2022-10-17T17:31:07.507Z,20.79
2022-10-17T17:36:52.656Z,20.75
2022-10-17T17:42:36.638Z,20.7
2022-10-17T17:48:20.706Z,20.66
2022-10-17T17:54:04.597Z,20.61
2022-10-17T17:59:48.757Z,20.58
2022-10-17T18:05:32.897Z,20.56
2022-10-17T18:11:18.301Z,20.52
2022-10-17T18:17:05.309Z,20.55
2022-10-17T18:22:50.258Z,20.54
2022-10-17T18:28:34.454Z,20.59
2022-10-17T18:34:18.727Z,20.53
2022-10-17T18:40:02.417Z,20.49
2022-10-17T18:45:46.102Z,20.44
2022-10-17T18:51:29.822Z,20.4
2022-10-17T18:57:13.758Z,20.38
2022-10-17T19:02:57.558Z,20.38
2022-10-17T19:08:41.896Z,20.36
2022-10-17T19:14:25.878Z,20.34
2022-10-17T19:20:10.522Z,20.29
2022-10-17T19:25:54.990Z,20.28
2022-10-17T19:31:43.563Z,20.28
2022-10-17T19:37:27.934Z,20.29
2022-10-17T19:43:13.157Z,20.24
2022-10-17T19:48:57.092Z,20.22
2022-10-17T19:54:41.535Z,20.2
2022-10-17T20:00:25.560Z,20.19
2022-10-17T20:06:09.769Z,20.2
2022-10-17T20:11:53.603Z,20.18
2022-10-17T20:17:37.665Z,20.16
2022-10-17T20:23:21.579Z,20.13
2022-10-17T20:29:06.886Z,20.14
2022-10-17T20:34:51.291Z,20.13
2022-10-17T20:40:35.791Z,20.12
2022-10-17T20:46:29.694Z,20.09
2022-10-17T20:52:24.189Z,20.11
2022-10-17T20:58:09.162Z,20.11
2022-10-17T21:03:53.898Z,20.1
2022-10-17T21:09:46.418Z,20.07
2022-10-17T21:15:29.971Z,20.06
2022-10-17T21:21:15.034Z,20.02
2022-10-17T21:26:58.610Z,20.03
2022-10-17T21:32:57.520Z,19.98
2022-10-17T21:38:35.178Z,20.01
2022-10-17T21:44:19.014Z,19.97
2022-10-17T21:50:02.237Z,20.06
2022-10-17T21:55:45.360Z,20.04
2022-10-17T22:01:30.798Z,19.96
2022-10-17T22:07:14.462Z,20.01
2022-10-17T22:12:58.591Z,19.97
2022-10-17T22:18:42.198Z,19.92
2022-10-17T22:24:25.463Z,19.92
2022-10-17T22:30:09.648Z,19.9
2022-10-17T22:35:52.694Z,19.91
2022-10-17T22:41:35.959Z,19.87
2022-10-17T22:47:19.113Z,19.87
2022-10-17T22:53:02.583Z,19.86
2022-10-17T22:58:46.387Z,19.86
2022-10-17T23:04:29.483Z,19.86
2022-10-17T23:10:13.140Z,19.86
2022-10-17T23:15:57.228Z,19.84
2022-10-17T23:21:40.566Z,19.79
2022-10-17T23:27:23.839Z,19.78
2022-10-17T23:33:07.557Z,19.76
2022-10-17T23:38:51.806Z,19.76
2022-10-17T23:44:40.827Z,19.78
2022-10-17T23:50:24.066Z,19.75
2022-10-17T23:56:08.099Z,19.76
